Time;durP1;ratioP1;P1;durP2;ratioP2;P2;SDS_P1;SDS_P2;PMS_P1;PMS_P2;Temp;Humidity;BMP_temperature;BMP_pressure;BME280_temperature;BME280_humidity;BME280_pressure;Samples;Min_cycle;Max_cycle;Signal;HPM_P1;HPM_P2
2022/12/15 03:25:47;;;;;;;10.90;6.30;;;;;;;-2.27;62.69;99880.85;30828;1336;3013597;-69
2022/12/15 03:28:17;;;;;;;11.30;7.10;;;;;;;-2.23;63.16;99886.17;24491;1338;3025831;-64
2022/12/15 03:30:47;;;;;;;13.50;7.40;;;;;;;-2.31;63.08;99881.04;24400;1339;3025879;-66
2022/12/15 03:33:16;;;;;;;12.10;7.10;;;;;;;-2.35;62.80;99876.91;24390;1339;3026799;-64
2022/12/15 03:35:46;;;;;;;11.60;6.40;;;;;;;-2.33;63.03;99873.66;24493;1338;3026649;-70
2022/12/15 03:38:16;;;;;;;11.70;5.90;;;;;;;-2.38;63.20;99879.84;23779;1343;3026523;-67
2022/12/15 03:40:45;;;;;;;10.60;6.20;;;;;;;-2.29;63.13;99878.63;24428;1328;3028135;-65
2022/12/15 03:43:14;;;;;;;9.60;5.50;;;;;;;-2.31;63.18;99875.20;24566;1322;3027862;-65
2022/12/15 03:45:43;;;;;;;12.40;6.30;;;;;;;-2.31;63.60;99865.59;24492;1325;3053225;-67
2022/12/15 03:48:14;;;;;;;11.00;6.30;;;;;;;-2.26;62.76;99858.37;24507;1339;3026647;-64
2022/12/15 03:50:43;;;;;;;9.80;5.60;;;;;;;-2.22;62.76;99857.50;24583;1326;3027933;-67
2022/12/15 03:53:12;;;;;;;14.40;6.00;;;;;;;-2.26;63.04;99854.09;24534;1326;3051274;-65
2022/12/15 03:55:41;;;;;;;8.70;5.10;;;;;;;-2.21;63.30;99854.58;24461;1326;3028926;-64
2022/12/15 03:58:10;;;;;;;10.00;6.30;;;;;;;-2.21;63.35;99849.10;24512;1333;3050739;-66
2022/12/15 04:00:39;;;;;;;11.30;5.90;;;;;;;-2.19;63.07;99850.64;24562;1331;3026012;-65
2022/12/15 04:03:09;;;;;;;11.80;5.80;;;;;;;-2.22;63.32;99845.84;24529;1332;3056587;-66
2022/12/15 04:05:39;;;;;;;10.60;5.80;;;;;;;-2.10;63.54;99848.72;24558;1326;3027467;-69
2022/12/15 04:08:08;;;;;;;9.40;5.20;;;;;;;-2.13;63.81;99847.70;24534;1339;3026503;-65
2022/12/15 04:10:37;;;;;;;11.10;5.80;;;;;;;-2.10;64.14;99844.27;24494;1332;3025713;-66
2022/12/15 04:13:08;;;;;;;11.90;5.70;;;;;;;-2.05;64.06;99842.02;24502;1332;3051423;-63
2022/12/15 04:15:38;;;;;;;10.90;5.10;;;;;;;-2.06;64.36;99842.70;24500;1336;3026596;-68
2022/12/15 04:18:11;;;;;;;12.50;6.20;;;;;;;-2.12;64.34;99840.98;24482;1324;3026632;-67
2022/12/15 04:20:40;;;;;;;10.80;5.90;;;;;;;-2.06;64.52;99840.30;24589;1326;3052087;-65
2022/12/15 04:23:09;;;;;;;11.10;5.60;;;;;;;-1.95;64.49;99844.89;24484;1325;3026136;-66
2022/12/15 05:32:57;;;;;;;10.00;5.60;;;;;;;-1.82;68.07;99848.80;24448;1332;3050676;-68
2022/12/15 05:35:26;;;;;;;10.80;6.20;;;;;;;-1.76;68.01;99847.23;24513;1326;3028069;-66
2022/12/15 05:37:55;;;;;;;13.50;6.10;;;;;;;-1.78;68.15;99850.50;24497;1332;3053062;-67
2022/12/15 05:40:24;;;;;;;14.90;6.50;;;;;;;-1.67;67.63;99849.08;24522;1332;3026563;-68
2022/12/15 05:42:57;;;;;;;14.00;6.60;;;;;;;-1.70;68.18;99844.80;24553;1333;3051316;-67
2022/12/15 05:45:26;;;;;;;12.40;6.70;;;;;;;-1.73;68.22;99849.45;24563;1336;3053198;-65
2022/12/15 05:47:55;;;;;;;11.30;6.70;;;;;;;-1.66;68.32;99848.39;24582;1333;3027493;-65
2022/12/15 05:50:24;;;;;;;12.40;6.80;;;;;;;-1.62;68.20;99849.23;24523;1334;3050603;-71
2022/12/15 05:52:54;;;;;;;13.30;6.90;;;;;;;-1.67;68.40;99853.71;24582;1326;3026304;-63
2022/12/15 05:55:23;;;;;;;15.30;7.50;;;;;;;-1.62;68.34;99859.37;24467;1342;3055463;-64
2022/12/15 05:57:52;;;;;;;16.30;7.90;;;;;;;-1.68;68.51;99863.17;24545;1326;3026373;-68
2022/12/15 06:00:21;;;;;;;15.50;7.60;;;;;;;-1.62;68.99;99866.40;24548;1333;3047872;-65
2022/12/15 06:02:50;;;;;;;14.80;7.10;;;;;;;-1.48;68.46;99867.54;24546;1326;3025865;-66
2022/12/15 06:05:19;;;;;;;13.30;6.60;;;;;;;-1.55;68.58;99877.37;24501;1334;3067922;-69
2022/12/15 06:07:48;;;;;;;15.00;6.70;;;;;;;-1.52;68.63;99875.12;24542;1326;3028415;-67
2022/12/15 06:10:18;;;;;;;13.30;6.20;;;;;;;-1.50;68.88;99871.33;24499;1343;3048984;-67
2022/12/15 06:12:46;;;;;;;14.90;7.00;;;;;;;-1.47;68.40;99865.14;24528;1333;3026335;-65
2022/12/15 06:15:16;;;;;;;12.10;6.20;;;;;;;-1.50;68.89;99867.71;24473;1333;3052345;-68
2022/12/15 06:17:45;;;;;;;12.00;7.00;;;;;;;-1.45;69.25;99861.34;24554;1325;3026006;-66
2022/12/15 06:20:14;;;;;;;10.40;6.90;;;;;;;-1.42;68.58;99864.07;24462;1325;3050701;-68
2022/12/15 06:22:43;;;;;;;12.10;6.30;;;;;;;-1.45;68.70;99863.39;24550;1333;3026582;-67
2022/12/15 06:25:12;;;;;;;12.90;6.90;;;;;;;-1.35;68.91;99861.63;24480;1333;3052753;-64
2022/12/15 06:27:41;;;;;;;16.50;7.50;;;;;;;-1.34;69.16;99862.81;24587;1333;3025789;-66
2022/12/15 06:30:11;;;;;;;13.90;6.50;;;;;;;-1.27;68.94;99864.16;24543;1332;3051091;-68
2022/12/15 06:32:42;;;;;;;12.70;6.50;;;;;;;-1.23;69.07;99865.33;24558;1326;3026999;-67
2022/12/15 06:35:11;;;;;;;11.60;6.80;;;;;;;-1.24;69.27;99868.95;24491;1323;3028304;-66
2022/12/15 06:37:40;;;;;;;13.30;6.60;;;;;;;-1.24;69.16;99867.05;24546;1333;3051216;-68
2022/12/15 06:40:09;;;;;;;13.00;6.20;;;;;;;-1.22;68.98;99860.35;24580;1332;3028094;-70
2022/12/15 06:42:39;;;;;;;14.40;7.00;;;;;;;-1.24;69.15;99855.20;24547;1333;3056294;-65
2022/12/15 06:45:08;;;;;;;14.30;7.10;;;;;;;-1.22;69.12;99856.21;24523;1326;3028277;-68
2022/12/15 06:47:40;;;;;;;16.20;7.70;;;;;;;-1.24;69.75;99857.79;24565;1334;3049832;-69
2022/12/15 06:50:09;;;;;;;14.10;7.20;;;;;;;-1.21;69.80;99853.98;24582;1326;3027710;-67
2022/12/15 06:52:38;;;;;;;15.40;7.60;;;;;;;-1.13;69.44;99842.92;24446;1326;3068478;-68
2022/12/15 06:55:08;;;;;;;13.80;7.00;;;;;;;-1.16;69.51;99839.67;24554;1341;3025999;-70
2022/12/15 06:57:37;;;;;;;14.70;7.60;;;;;;;-1.10;69.44;99846.86;24588;1341;3048921;-67
2022/12/15 07:00:07;;;;;;;14.60;7.40;;;;;;;-1.12;69.82;99846.88;24577;1333;3029252;-72
2022/12/15 07:02:36;;;;;;;13.60;6.90;;;;;;;-1.06;69.40;99842.02;24537;1327;3028988;-65
2022/12/15 07:05:06;;;;;;;14.20;6.90;;;;;;;-1.05;69.25;99841.14;24545;1332;3026150;-68
2022/12/15 07:07:34;;;;;;;12.10;5.80;;;;;;;-0.96;69.25;99844.02;24580;1332;3067997;-65
2022/12/15 07:10:04;;;;;;;11.60;7.00;;;;;;;-0.85;69.11;99833.09;24610;1326;3026462;-71
2022/12/15 07:12:33;;;;;;;14.00;6.70;;;;;;;-0.82;69.05;99826.35;24595;1336;3048419;-70
2022/12/15 07:15:02;;;;;;;13.20;7.00;;;;;;;-0.80;69.09;99822.20;24514;1334;3026651;-67
2022/12/15 07:17:32;;;;;;;15.30;7.20;;;;;;;-0.82;69.39;99814.31;24549;1333;3051442;-67
2022/12/15 07:20:00;;;;;;;12.70;6.50;;;;;;;-0.78;69.43;99813.42;24584;1327;3028378;-66
2022/12/15 07:22:34;;;;;;;15.70;7.80;;;;;;;-0.90;69.51;99809.21;24551;1325;3050853;-67
2022/12/15 07:25:04;;;;;;;13.80;7.20;;;;;;;-0.82;69.57;99805.55;24544;1325;3025319;-71
2022/12/15 07:27:34;;;;;;;12.50;7.60;;;;;;;-0.80;69.16;99797.96;24526;1333;3028899;-67
2022/12/15 07:30:06;;;;;;;12.80;7.20;;;;;;;-0.90;69.57;99795.64;24544;1343;3028561;-68
2022/12/15 07:32:35;;;;;;;13.90;7.80;;;;;;;-0.78;69.33;99787.95;24583;1332;3029018;-65
2022/12/15 14:22:32;;;;;;;17.50;8.70;;;;;;;1.61;71.17;99410.63;31056;1326;3018398;-66
2022/12/15 14:25:19;;;;;;;17.80;9.60;;;;;;;1.48;71.99;99405.63;24534;1330;3068595;-70
2022/12/15 14:27:48;;;;;;;15.50;7.80;;;;;;;1.45;72.33;99402.75;24569;1320;3049539;-69
2022/12/15 14:30:21;;;;;;;13.60;7.70;;;;;;;1.47;72.76;99405.46;24604;1331;3026557;-68
2022/12/15 14:32:58;;;;;;;17.70;8.70;;;;;;;1.45;73.12;99402.41;24547;1330;3026431;-66
2022/12/15 14:35:28;;;;;;;16.50;8.30;;;;;;;1.41;73.62;99401.31;24074;1320;3052260;-69
2022/12/15 14:37:58;;;;;;;16.10;9.00;;;;;;;1.48;73.36;99404.91;24671;1319;3048676;-71
2022/12/15 14:40:27;;;;;;;16.00;8.10;;;;;;;1.44;73.95;99412.61;24692;1328;3026588;-68
2022/12/15 14:42:56;;;;;;;17.90;9.00;;;;;;;1.50;73.97;99418.67;24637;1319;3025963;-65
2022/12/15 14:45:26;;;;;;;16.60;8.80;;;;;;;1.49;74.47;99432.85;24627;1327;3050032;-65
2022/12/15 14:48:06;;;;;;;17.60;9.90;;;;;;;1.60;74.30;99448.48;24614;1327;3026445;-70
2022/12/15 14:50:35;;;;;;;18.70;9.30;;;;;;;1.64;74.46;99448.73;24546;1329;3049763;-66
2022/12/15 14:53:05;;;;;;;17.40;9.80;;;;;;;1.71;74.49;99446.66;24541;1320;3028641;-70
2022/12/15 14:55:38;;;;;;;24.20;11.10;;;;;;;1.69;74.77;99442.58;24620;1328;3054507;-68
2022/12/15 14:58:29;;;;;;;22.40;11.80;;;;;;;1.70;74.99;99442.90;24606;1322;3026610;-66
2022/12/15 15:00:58;;;;;;;21.40;10.00;;;;;;;1.71;75.31;99448.20;24557;1330;3069030;-65
2022/12/15 15:03:35;;;;;;;22.30;10.20;;;;;;;1.71;75.29;99448.73;24522;1320;3026128;-71
2022/12/15 15:06:10;;;;;;;25.80;10.10;;;;;;;1.66;75.63;99453.84;24544;1334;3048757;-71
2022/12/15 15:08:51;;;;;;;26.20;10.90;;;;;;;1.70;75.46;99447.38;24525;1321;3068672;-69
2022/12/15 15:11:28;;;;;;;29.40;12.70;;;;;;;1.70;76.36;99444.10;24577;1321;3049223;-67
2022/12/15 15:14:03;;;;;;;26.50;12.60;;;;;;;1.72;76.64;99443.02;24636;1330;3056665;-68
2022/12/15 15:16:34;;;;;;;26.20;12.70;;;;;;;1.73;76.61;99447.48;24532;1325;3052550;-63
2022/12/15 15:19:04;;;;;;;29.40;13.50;;;;;;;1.69;76.64;99450.17;24560;1333;3026040;-71
2022/12/15 15:21:35;;;;;;;19.70;10.90;;;;;;;1.71;76.83;99451.33;24598;1325;3028474;-70
2022/12/15 15:24:11;;;;;;;27.50;12.00;;;;;;;1.66;76.56;99451.61;24577;1328;3026324;-65
2022/12/15 15:26:40;;;;;;;23.50;8.40;;;;;;;1.67;77.19;99450.55;24623;1330;3049874;-69
2022/12/15 15:29:38;;;;;;;17.00;8.60;;;;;;;2.26;76.19;99447.34;24639;1326;3026094;-67
2022/12/15 15:32:16;;;;;;;18.00;8.40;;;;;;;2.94;73.42;99439.55;24685;1327;3053620;-65
2022/12/15 15:34:46;;;;;;;15.50;9.10;;;;;;;2.93;72.61;99436.46;24648;1320;3049250;-65
2022/12/15 15:37:24;;;;;;;19.30;10.80;;;;;;;2.86;72.81;99436.48;24696;1320;3026348;-67
2022/12/15 15:39:53;;;;;;;17.40;9.80;;;;;;;2.68;73.32;99440.98;24720;1320;3050433;-68
2022/12/15 15:42:23;;;;;;;23.40;12.50;;;;;;;2.54;73.59;99445.34;24565;1329;3025699;-68
2022/12/15 15:44:51;;;;;;;24.10;12.10;;;;;;;2.37;74.27;99442.70;24686;1326;3028648;-67
2022/12/15 15:47:23;;;;;;;20.30;12.80;;;;;;;2.31;74.44;99449.11;24566;1327;3048687;-64
2022/12/15 15:49:53;;;;;;;22.60;11.30;;;;;;;2.20;75.21;99459.08;24568;1329;3026711;-67
2022/12/15 15:52:22;;;;;;;21.90;12.00;;;;;;;2.07;75.82;99462.52;24548;1325;3026137;-69
2022/12/15 15:54:52;;;;;;;23.50;12.00;;;;;;;2.09;75.79;99463.85;24532;1334;3026515;-65
2022/12/15 15:57:21;;;;;;;20.60;12.40;;;;;;;2.01;75.99;99462.49;24616;1327;3026427;-64
2022/12/15 15:59:51;;;;;;;19.80;11.10;;;;;;;2.00;76.16;99458.89;24613;1320;3050579;-67
2022/12/15 16:02:21;;;;;;;20.60;11.30;;;;;;;1.89;76.32;99465.04;24549;1327;3028412;-71
2022/12/15 16:04:50;;;;;;;16.70;10.00;;;;;;;1.83;76.91;99461.05;24617;1326;3026014;-69
2022/12/15 16:07:26;;;;;;;19.80;10.50;;;;;;;1.86;76.88;99465.13;24635;1319;3026406;-70
2022/12/15 16:09:55;;;;;;;18.00;10.50;;;;;;;1.82;76.77;99471.09;24645;1326;3049979;-71
2022/12/15 16:12:32;;;;;;;20.40;11.00;;;;;;;1.77;77.42;99473.45;24635;1329;3026842;-72
2022/12/15 16:15:01;;;;;;;23.60;11.10;;;;;;;1.77;77.62;99466.02;24656;1327;3051773;-68
2022/12/15 16:17:30;;;;;;;19.90;10.50;;;;;;;1.79;77.43;99459.91;24609;1320;3028087;-66
2022/12/15 16:19:59;;;;;;;26.90;11.40;;;;;;;1.75;77.47;99455.73;24646;1327;3052271;-70
2022/12/15 16:22:28;;;;;;;19.30;10.90;;;;;;;1.70;78.06;99467.41;24660;1325;3026288;-65
2022/12/15 16:24:57;;;;;;;17.80;8.10;;;;;;;1.75;78.28;99469.70;24629;1327;3051754;-67
2022/12/15 16:27:26;;;;;;;12.10;6.60;;;;;;;2.27;76.69;99463.19;24656;1319;3025916;-67
2022/12/15 16:29:55;;;;;;;14.40;7.30;;;;;;;2.97;74.67;99462.80;24623;1323;3051442;-68
2022/12/15 16:32:24;;;;;;;17.10;8.70;;;;;;;3.23;73.38;99462.91;24647;1318;3026407;-66
2022/12/15 16:34:53;;;;;;;20.80;10.40;;;;;;;2.97;73.34;99465.22;24664;1320;3026290;-70
2022/12/15 16:37:24;;;;;;;16.00;9.30;;;;;;;2.83;74.09;99466.68;24621;1327;3052531;-67
2022/12/15 16:39:53;;;;;;;22.20;10.90;;;;;;;2.66;74.31;99463.17;24601;1328;3026339;-66
2022/12/15 16:42:22;;;;;;;20.40;10.60;;;;;;;2.44;75.06;99458.41;24601;1327;3025962;-65
2022/12/15 16:44:51;;;;;;;16.50;8.50;;;;;;;2.31;75.39;99456.70;24596;1327;3051088;-72
2022/12/15 16:47:20;;;;;;;18.30;9.30;;;;;;;2.13;76.23;99457.37;24564;1331;3026451;-68
2022/12/15 16:49:53;;;;;;;17.70;9.70;;;;;;;2.11;76.42;99457.05;24546;1328;3056312;-70
2022/12/15 16:52:22;;;;;;;16.00;8.40;;;;;;;1.90;76.94;99451.38;24558;1330;3026749;-70
2022/12/15 16:54:51;;;;;;;12.70;8.10;;;;;;;1.89;77.20;99445.00;24557;1330;3050017;-69
2022/12/15 16:57:20;;;;;;;17.40;8.80;;;;;;;1.93;77.08;99447.33;24643;1329;3026608;-72
2022/12/15 16:59:49;;;;;;;18.30;8.10;;;;;;;1.88;77.53;99449.02;24476;1318;3068837;-68
2022/12/15 17:02:24;;;;;;;16.00;9.10;;;;;;;1.79;77.99;99450.44;24556;1320;3026164;-70
2022/12/15 17:04:54;;;;;;;16.50;8.80;;;;;;;1.78;78.10;99445.79;24610;1328;3048027;-70
2022/12/15 17:07:25;;;;;;;16.60;8.80;;;;;;;1.78;78.14;99446.83;24526;1325;3028381;-65
2022/12/15 17:09:54;;;;;;;20.90;10.10;;;;;;;1.75;78.61;99445.35;24561;1328;3027714;-72
2022/12/15 17:12:23;;;;;;;16.80;7.40;;;;;;;1.69;79.04;99442.90;24577;1328;3026652;-66
2022/12/15 17:14:52;;;;;;;13.90;6.90;;;;;;;2.26;78.02;99438.15;24556;1329;3068642;-65
2022/12/15 17:17:20;;;;;;;13.70;6.30;;;;;;;2.90;75.15;99435.70;24519;1321;3026094;-65
2022/12/15 17:19:51;;;;;;;15.60;8.30;;;;;;;2.98;74.71;99436.48;24642;1319;3048798;-66
2022/12/15 17:22:20;;;;;;;15.90;9.10;;;;;;;2.90;74.61;99434.81;24596;1335;3025582;-69
2022/12/15 17:24:51;;;;;;;15.70;7.90;;;;;;;2.81;74.82;99431.08;24558;1330;3025936;-67
2022/12/15 17:27:27;;;;;;;16.90;8.60;;;;;;;2.62;75.33;99435.27;24531;1336;3048683;-66
2022/12/15 17:29:56;;;;;;;17.20;9.00;;;;;;;2.43;75.76;99432.53;24632;1336;3027194;-71
2022/12/15 17:32:25;;;;;;;17.10;10.00;;;;;;;2.17;76.91;99427.67;24709;1336;3026719;-68
2022/12/15 17:34:54;;;;;;;20.90;9.90;;;;;;;2.05;77.52;99429.20;24567;1321;3028027;-72
2022/12/15 17:37:24;;;;;;;19.10;9.30;;;;;;;2.04;77.89;99425.64;24646;1328;3068570;-66
2022/12/15 17:39:53;;;;;;;20.40;9.30;;;;;;;2.02;78.04;99423.94;24598;1330;3028565;-70
2022/12/15 17:42:21;;;;;;;21.00;10.10;;;;;;;1.98;78.13;99422.31;24541;1332;3025931;-68
2022/12/15 17:44:50;;;;;;;19.30;9.90;;;;;;;1.80;78.65;99423.10;24616;1318;3068774;-68
2022/12/15 17:47:19;;;;;;;19.80;9.90;;;;;;;1.82;79.11;99428.42;24625;1323;3026418;-69
2022/12/15 17:49:49;;;;;;;22.00;9.90;;;;;;;1.85;79.24;99426.63;24560;1329;3049191;-73
2022/12/15 17:52:28;;;;;;;17.50;9.30;;;;;;;1.84;79.26;99417.67;24586;1336;3028448;-67
2022/12/15 17:54:57;;;;;;;18.30;9.70;;;;;;;1.87;79.29;99421.21;24619;1327;3050141;-71
2022/12/15 17:57:30;;;;;;;12.70;6.60;;;;;;;1.82;78.91;99418.92;24565;1323;3025956;-71
2022/12/15 18:00:00;;;;;;;14.00;6.80;;;;;;;2.35;77.90;99419.08;24593;1322;3069268;-68
2022/12/15 18:02:31;;;;;;;14.90;7.90;;;;;;;3.02;75.87;99420.61;24618;1328;3026336;-73
2022/12/15 18:05:00;;;;;;;16.10;9.20;;;;;;;3.20;74.73;99418.49;24546;1333;3028626;-67
2022/12/15 18:07:29;;;;;;;21.20;10.50;;;;;;;2.96;74.71;99419.07;24644;1329;3028101;-68
2022/12/15 18:09:58;;;;;;;20.70;10.50;;;;;;;2.64;75.48;99418.42;24567;1330;3049837;-71
2022/12/15 18:12:27;;;;;;;17.00;9.60;;;;;;;2.50;76.18;99421.09;24639;1322;3028196;-70
2022/12/15 18:14:57;;;;;;;18.00;9.40;;;;;;;2.38;76.74;99418.48;24585;1320;3068921;-68
2022/12/15 18:17:27;;;;;;;17.10;9.20;;;;;;;2.32;76.90;99415.52;24580;1328;3026295;-68
2022/12/15 18:19:56;;;;;;;17.00;9.50;;;;;;;2.28;76.93;99418.23;24558;1326;3028522;-70
2022/12/15 18:22:24;;;;;;;17.60;9.10;;;;;;;2.20;77.35;99412.59;24626;1329;3028680;-66
2022/12/15 18:24:54;;;;;;;21.30;10.30;;;;;;;2.16;77.63;99412.84;24550;1330;3049362;-70
2022/12/15 18:27:24;;;;;;;18.20;10.10;;;;;;;2.08;77.82;99412.20;24691;1329;3028339;-69
2022/12/15 18:29:54;;;;;;;20.40;10.00;;;;;;;2.03;78.38;99410.78;24906;1320;3067700;-70
2022/12/15 18:32:25;;;;;;;16.60;9.60;;;;;;;1.92;78.85;99413.31;25438;1327;3025926;-68
2022/12/15 18:34:54;;;;;;;15.10;9.40;;;;;;;1.95;78.66;99407.70;24660;1320;3027601;-69
2022/12/15 18:37:23;;;;;;;20.00;10.80;;;;;;;1.85;79.27;99407.45;25223;1323;3024967;-67
2022/12/15 18:39:53;;;;;;;16.80;8.80;;;;;;;1.86;79.70;99404.84;24889;1319;3049176;-68
2022/12/15 18:42:22;;;;;;;11.50;6.80;;;;;;;2.24;78.64;99402.95;24607;1329;3026263;-66
2022/12/15 18:44:51;;;;;;;15.40;9.30;;;;;;;2.98;76.25;99405.16;24708;1319;3025875;-65
2022/12/15 18:47:25;;;;;;;16.90;8.90;;;;;;;3.02;74.88;99408.30;24658;1327;3047884;-69
2022/12/15 18:49:53;;;;;;;21.10;9.80;;;;;;;2.99;75.05;99411.34;24644;1321;3026078;-69
2022/12/15 18:52:23;;;;;;;17.50;9.70;;;;;;;2.80;75.33;99408.96;24691;1327;3026810;-66
2022/12/15 18:54:52;;;;;;;19.30;9.70;;;;;;;2.74;75.74;99413.84;24591;1320;3049626;-69
2022/12/15 18:57:29;;;;;;;16.40;9.50;;;;;;;2.55;76.41;99409.19;24698;1329;3026325;-65
2022/12/15 19:00:08;;;;;;;19.50;9.90;;;;;;;2.41;76.87;99411.67;24633;1319;3051626;-67
2022/12/15 19:02:38;;;;;;;18.00;10.10;;;;;;;2.34;77.34;99414.60;24640;1327;3052420;-66
2022/12/15 19:05:25;;;;;;;18.40;10.20;;;;;;;2.24;77.58;99414.54;24612;1312;3026528;-65
2022/12/15 19:07:56;;;;;;;20.20;11.20;;;;;;;2.15;78.07;99416.35;24638;1320;3053524;-68
2022/12/15 19:10:26;;;;;;;17.70;10.40;;;;;;;2.10;78.21;99416.65;24714;1327;3026016;-63
2022/12/15 19:12:55;;;;;;;19.80;10.20;;;;;;;2.02;78.90;99418.58;24599;1320;3026278;-65
2022/12/15 19:15:24;;;;;;;19.70;10.40;;;;;;;1.98;79.02;99419.20;24613;1319;3027636;-68
2022/12/15 19:23:29;;;;;;;15.80;8.20;;;;;;;1.94;79.45;99421.55;24628;1325;3052158;-68
2022/12/15 19:25:58;;;;;;;12.10;6.90;;;;;;;2.50;77.89;99424.52;24657;1327;3028248;-66
2022/12/15 19:28:27;;;;;;;17.00;8.30;;;;;;;3.16;75.50;99427.45;24652;1328;3050469;-65
2022/12/15 19:30:56;;;;;;;19.80;9.20;;;;;;;3.21;74.83;99429.02;24683;1319;3026209;-69
2022/12/15 19:33:26;;;;;;;19.00;9.80;;;;;;;3.08;74.74;99425.64;24598;1319;3052473;-66
2022/12/15 19:35:56;;;;;;;19.30;8.90;;;;;;;2.96;75.24;99423.55;24687;1318;3028346;-67
2022/12/15 19:38:27;;;;;;;18.40;9.60;;;;;;;2.89;75.37;99423.24;24567;1320;3052240;-65
2022/12/15 19:40:56;;;;;;;18.10;9.60;;;;;;;2.77;75.57;99427.41;24642;1319;3026030;-65
2022/12/15 19:43:26;;;;;;;18.90;9.50;;;;;;;2.63;76.45;99421.94;24601;1336;3028621;-68
2022/12/15 19:45:55;;;;;;;18.10;9.70;;;;;;;2.50;76.79;99422.98;24648;1320;3026367;-64
2022/12/15 19:48:24;;;;;;;18.70;9.60;;;;;;;2.36;77.09;99425.60;24608;1320;3052368;-69
2022/12/15 19:50:53;;;;;;;22.20;10.80;;;;;;;2.32;77.65;99435.92;24712;1327;3026324;-64
2022/12/15 19:53:24;;;;;;;17.70;9.60;;;;;;;2.30;77.83;99442.91;24661;1319;3051503;-64
2022/12/15 19:55:54;;;;;;;20.10;10.20;;;;;;;2.29;77.87;99448.95;24629;1327;3026084;-68
2022/12/15 19:58:28;;;;;;;20.50;9.70;;;;;;;2.27;78.06;99456.11;24707;1319;3026529;-67
2022/12/15 20:01:00;;;;;;;17.90;10.40;;;;;;;2.18;78.06;99451.86;24692;1319;3053079;-66
2022/12/15 20:03:29;;;;;;;20.10;9.80;;;;;;;2.14;78.46;99447.46;24577;1327;3028779;-66
2022/12/15 20:05:59;;;;;;;17.00;9.20;;;;;;;2.19;78.27;99448.72;24687;1327;3026565;-64
2022/12/15 20:08:34;;;;;;;13.10;6.70;;;;;;;2.17;78.36;99438.93;24631;1327;3052092;-66
2022/12/15 20:11:04;;;;;;;10.80;6.10;;;;;;;2.72;77.26;99433.25;24720;1333;3049489;-67
2022/12/15 20:13:33;;;;;;;14.70;7.60;;;;;;;3.40;74.94;99433.45;24486;1327;3028295;-62
2022/12/15 20:16:02;;;;;;;14.60;7.90;;;;;;;3.45;74.01;99432.61;24724;1320;3026563;-67
2022/12/15 20:18:39;;;;;;;17.40;8.80;;;;;;;3.27;74.20;99440.09;24657;1330;3048865;-66
2022/12/15 20:21:09;;;;;;;18.80;9.70;;;;;;;3.12;74.59;99441.41;24679;1329;3026494;-67
2022/12/15 20:23:59;;;;;;;19.40;9.90;;;;;;;2.86;75.51;99445.66;24554;1327;3029260;-69
2022/12/15 20:26:28;;;;;;;17.50;9.30;;;;;;;2.73;76.22;99446.56;24651;1319;3056565;-69
2022/12/15 20:28:58;;;;;;;18.30;9.60;;;;;;;2.65;76.64;99441.40;24627;1320;3027884;-67
2022/12/15 20:31:27;;;;;;;18.20;8.70;;;;;;;2.57;76.73;99440.92;24652;1327;3025855;-68
2022/12/15 20:33:56;;;;;;;18.10;9.00;;;;;;;2.52;76.92;99442.98;24583;1335;3056631;-67
2022/12/15 20:36:26;;;;;;;17.30;10.40;;;;;;;2.46;77.29;99446.44;24661;1327;3025726;-68
2022/12/15 20:38:59;;;;;;;17.80;9.20;;;;;;;2.33;78.07;99448.33;24685;1320;3048700;-67
2022/12/15 20:41:28;;;;;;;21.10;9.60;;;;;;;2.32;78.05;99454.08;24688;1320;3026262;-65
2022/12/15 20:43:57;;;;;;;18.60;9.60;;;;;;;2.31;78.29;99449.09;24660;1325;3068380;-68
2022/12/15 20:46:33;;;;;;;17.90;9.30;;;;;;;2.29;78.00;99451.56;24657;1336;3026669;-65
2022/12/15 20:49:03;;;;;;;16.70;8.90;;;;;;;2.27;78.37;99456.48;24622;1336;3057001;-67
2022/12/15 20:51:32;;;;;;;20.10;9.80;;;;;;;2.28;78.48;99463.02;24634;1327;3026363;-66
2022/12/15 20:54:01;;;;;;;12.90;6.80;;;;;;;2.31;78.37;99463.27;24740;1318;3026351;-64
2022/12/15 20:56:30;;;;;;;9.90;6.00;;;;;;;2.85;77.10;99458.64;24612;1327;3056110;-64
2022/12/15 20:58:59;;;;;;;14.40;7.10;;;;;;;3.52;74.64;99456.13;24692;1320;3026180;-64
2022/12/15 21:01:31;;;;;;;20.60;9.50;;;;;;;3.70;73.69;99452.27;24628;1326;3049081;-69
2022/12/15 21:04:03;;;;;;;19.40;9.10;;;;;;;3.51;73.71;99452.14;24686;1329;3026198;-66
2022/12/15 21:06:32;;;;;;;20.20;9.60;;;;;;;3.35;74.19;99447.13;24659;1326;3026153;-68
2022/12/15 21:09:01;;;;;;;17.10;9.20;;;;;;;3.20;74.44;99433.58;24702;1329;3026552;-67
2022/12/15 21:11:31;;;;;;;16.70;9.40;;;;;;;3.01;74.86;99417.36;24623;1322;3054917;-68
2022/12/15 21:14:02;;;;;;;17.90;9.00;;;;;;;2.77;75.63;99404.40;24540;1319;3026641;-62
2022/12/15 21:16:32;;;;;;;21.40;11.00;;;;;;;2.64;76.10;99404.09;24692;1320;3026247;-74
2022/12/15 21:19:02;;;;;;;21.80;10.40;;;;;;;2.43;77.05;99405.91;24677;1322;3026356;-67
2022/12/15 21:21:32;;;;;;;26.50;10.90;;;;;;;2.29;77.90;99413.38;24734;1327;3028930;-70
2022/12/15 21:24:10;;;;;;;20.60;10.40;;;;;;;2.28;78.10;99419.27;24825;1323;3026620;-70
2022/12/15 21:26:39;;;;;;;21.30;10.70;;;;;;;2.24;78.10;99421.96;24761;1319;3068070;-70
2022/12/15 21:29:11;;;;;;;21.70;10.50;;;;;;;2.29;78.25;99424.97;24598;1323;3026478;-65
2022/12/15 21:31:41;;;;;;;19.20;10.90;;;;;;;2.29;78.32;99426.15;24586;1333;3049370;-68
2022/12/15 21:34:10;;;;;;;21.90;11.20;;;;;;;2.32;78.32;99433.18;24578;1326;3025682;-69
2022/12/15 21:36:41;;;;;;;23.90;11.70;;;;;;;2.37;78.50;99438.41;24507;1329;3028521;-67
2022/12/15 21:39:17;;;;;;;17.10;8.70;;;;;;;2.39;78.41;99440.22;24625;1318;3027234;-69
2022/12/15 21:41:45;;;;;;;16.60;7.10;;;;;;;2.98;76.77;99443.90;24597;1321;3052629;-65
2022/12/15 21:44:15;;;;;;;14.20;8.40;;;;;;;3.63;74.65;99441.38;24575;1318;3027053;-67
2022/12/15 21:46:45;;;;;;;19.30;9.80;;;;;;;3.83;73.53;99440.23;24607;1323;3056019;-71
2022/12/15 21:49:19;;;;;;;20.20;11.00;;;;;;;3.71;73.09;99449.62;24645;1320;3028490;-64
2022/12/15 21:51:56;;;;;;;17.40;10.70;;;;;;;3.60;73.57;99453.77;24548;1326;3052382;-68
2022/12/15 21:54:30;;;;;;;19.40;10.10;;;;;;;3.45;73.50;99455.44;24495;1325;3050696;-67
2022/12/15 21:56:59;;;;;;;17.20;10.20;;;;;;;3.33;73.99;99453.91;24518;1329;3052079;-64
2022/12/15 21:59:30;;;;;;;19.40;10.70;;;;;;;3.26;74.32;99454.67;24528;1329;3028525;-68
2022/12/15 22:01:59;;;;;;;19.40;10.30;;;;;;;3.16;74.32;99459.98;24536;1329;3026131;-71
2022/12/15 22:04:31;;;;;;;20.30;12.10;;;;;;;3.09;74.83;99464.20;24534;1330;3026656;-68
2022/12/15 22:07:00;;;;;;;17.60;11.70;;;;;;;3.02;75.08;99473.75;24506;1330;3026680;-65
2022/12/15 22:09:30;;;;;;;19.50;10.80;;;;;;;3.00;75.34;99483.33;24543;1329;3026202;-66
2022/12/15 22:12:00;;;;;;;19.90;10.80;;;;;;;3.01;75.54;99479.11;24741;1315;3027861;-65
2022/12/15 22:14:32;;;;;;;19.50;10.70;;;;;;;2.98;75.17;99474.38;24550;1319;3055067;-67
2022/12/15 22:17:18;;;;;;;18.50;10.50;;;;;;;2.97;75.39;99481.84;24700;1320;3052879;-69
2022/12/15 22:19:47;;;;;;;17.30;9.60;;;;;;;2.95;75.50;99483.13;24604;1329;3053460;-70
2022/12/15 22:22:16;;;;;;;18.70;10.40;;;;;;;2.90;75.66;99484.48;24614;1319;3025294;-71
2022/12/15 22:24:47;;;;;;;20.30;10.10;;;;;;;2.92;75.88;99483.73;24674;1327;3051268;-69
2022/12/15 22:27:18;;;;;;;16.40;9.00;;;;;;;2.86;75.87;99484.41;24551;1320;3028727;-65
2022/12/15 22:29:47;;;;;;;19.40;9.70;;;;;;;2.85;76.24;99487.04;24518;1329;3057220;-65
2022/12/15 22:32:17;;;;;;;17.50;9.40;;;;;;;2.89;76.01;99489.68;24625;1320;3026481;-68
2022/12/15 22:34:46;;;;;;;19.30;10.80;;;;;;;2.93;76.00;99489.06;24613;1327;3028545;-65
2022/12/15 22:37:15;;;;;;;20.30;11.50;;;;;;;2.87;75.93;99484.36;24573;1335;3026630;-63
2022/12/15 22:39:45;;;;;;;21.50;11.30;;;;;;;2.89;76.02;99479.48;24503;1322;3051694;-68
2022/12/15 22:42:15;;;;;;;22.00;11.50;;;;;;;2.89;75.97;99481.22;24615;1327;3029647;-63
2022/12/15 22:44:44;;;;;;;21.90;11.40;;;;;;;2.89;75.66;99486.91;24625;1327;3026739;-67
2022/12/15 22:47:13;;;;;;;22.50;11.30;;;;;;;2.78;75.85;99487.74;24644;1320;3051449;-64
2022/12/15 22:49:43;;;;;;;20.40;10.60;;;;;;;2.69;76.21;99492.16;24642;1320;3027953;-66
2022/12/15 22:52:16;;;;;;;15.30;8.20;;;;;;;2.70;76.42;99501.27;24526;1322;3055991;-69